sensor_id;sensor_type;location;lat;lon;timestamp;P1;durP1;ratioP1;P2;durP2;ratioP2
5787;SDS011;2920;48.158;12.254;2023-02-28T00:00:10;6.00;;;2.38;;
5787;SDS011;2920;48.158;12.254;2023-02-28T00:02:40;2.28;;;1.77;;
5787;SDS011;2920;48.158;12.254;2023-02-28T00:05:07;2.80;;;2.10;;
5787;SDS011;2920;48.158;12.254;2023-02-28T00:07:33;3.05;;;1.80;;
5787;SDS011;2920;48.158;12.254;2023-02-28T00:09:59;3.70;;;2.13;;
5787;SDS011;2920;48.158;12.254;2023-02-28T00:12:25;4.80;;;2.28;;
5787;SDS011;2920;48.158;12.254;2023-02-28T00:14:51;4.25;;;2.42;;
5787;SDS011;2920;48.158;12.254;2023-02-28T00:17:16;3.40;;;2.10;;
5787;SDS011;2920;48.158;12.254;2023-02-28T00:19:49;4.78;;;2.55;;
5787;SDS011;2920;48.158;12.254;2023-02-28T00:22:15;4.38;;;2.50;;
5787;SDS011;2920;48.158;12.254;2023-02-28T00:24:41;3.70;;;2.28;;
5787;SDS011;2920;48.158;12.254;2023-02-28T00:27:06;6.10;;;2.78;;
5787;SDS011;2920;48.158;12.254;2023-02-28T00:29:32;4.63;;;2.30;;
5787;SDS011;2920;48.158;12.254;2023-02-28T00:31:57;4.35;;;2.33;;
5787;SDS011;2920;48.158;12.254;2023-02-28T00:34:22;3.53;;;2.10;;
5787;SDS011;2920;48.158;12.254;2023-02-28T00:36:48;3.65;;;1.90;;
5787;SDS011;2920;48.158;12.254;2023-02-28T00:39:16;7.60;;;3.10;;
5787;SDS011;2920;48.158;12.254;2023-02-28T00:41:41;3.33;;;2.10;;
5787;SDS011;2920;48.158;12.254;2023-02-28T00:44:07;3.85;;;2.60;;
5787;SDS011;2920;48.158;12.254;2023-02-28T00:46:32;4.80;;;3.00;;
5787;SDS011;2920;48.158;12.254;2023-02-28T00:48:57;6.93;;;3.00;;
5787;SDS011;2920;48.158;12.254;2023-02-28T00:51:23;4.20;;;2.33;;
5787;SDS011;2920;48.158;12.254;2023-02-28T00:53:48;5.78;;;2.80;;
5787;SDS011;2920;48.158;12.254;2023-02-28T00:56:13;3.53;;;2.70;;
5787;SDS011;2920;48.158;12.254;2023-02-28T00:58:39;3.70;;;2.25;;
5787;SDS011;2920;48.158;12.254;2023-02-28T01:01:04;5.72;;;2.50;;
5787;SDS011;2920;48.158;12.254;2023-02-28T01:03:30;5.55;;;2.40;;
5787;SDS011;2920;48.158;12.254;2023-02-28T01:05:55;4.30;;;2.60;;
5787;SDS011;2920;48.158;12.254;2023-02-28T01:08:21;4.57;;;2.63;;
5787;SDS011;2920;48.158;12.254;2023-02-28T01:10:46;6.28;;;2.42;;
5787;SDS011;2920;48.158;12.254;2023-02-28T01:13:12;5.35;;;2.50;;
5787;SDS011;2920;48.158;12.254;2023-02-28T01:15:42;3.60;;;2.33;;
5787;SDS011;2920;48.158;12.254;2023-02-28T01:18:11;6.65;;;2.75;;
5787;SDS011;2920;48.158;12.254;2023-02-28T01:20:36;6.68;;;3.10;;
5787;SDS011;2920;48.158;12.254;2023-02-28T01:23:02;5.68;;;3.03;;
5787;SDS011;2920;48.158;12.254;2023-02-28T01:25:28;5.20;;;2.42;;
5787;SDS011;2920;48.158;12.254;2023-02-28T01:27:53;7.82;;;3.13;;
5787;SDS011;2920;48.158;12.254;2023-02-28T01:30:18;6.18;;;3.00;;
5787;SDS011;2920;48.158;12.254;2023-02-28T01:32:44;8.30;;;2.80;;
5787;SDS011;2920;48.158;12.254;2023-02-28T01:35:09;4.53;;;2.67;;
5787;SDS011;2920;48.158;12.254;2023-02-28T01:37:34;6.07;;;3.30;;
5787;SDS011;2920;48.158;12.254;2023-02-28T01:40:00;7.38;;;3.45;;
5787;SDS011;2920;48.158;12.254;2023-02-28T01:42:25;7.10;;;3.10;;
5787;SDS011;2920;48.158;12.254;2023-02-28T01:44:55;4.20;;;2.78;;
5787;SDS011;2920;48.158;12.254;2023-02-28T01:47:22;7.55;;;3.38;;
5787;SDS011;2920;48.158;12.254;2023-02-28T01:49:48;5.30;;;2.95;;
5787;SDS011;2920;48.158;12.254;2023-02-28T01:52:13;6.22;;;3.22;;
5787;SDS011;2920;48.158;12.254;2023-02-28T01:54:43;5.90;;;3.22;;
5787;SDS011;2920;48.158;12.254;2023-02-28T01:57:11;6.90;;;3.42;;
5787;SDS011;2920;48.158;12.254;2023-02-28T01:59:42;7.03;;;3.13;;
5787;SDS011;2920;48.158;12.254;2023-02-28T02:02:23;4.97;;;2.72;;
5787;SDS011;2920;48.158;12.254;2023-02-28T02:07:26;5.70;;;2.70;;
5787;SDS011;2920;48.158;12.254;2023-02-28T02:10:05;7.10;;;3.60;;
5787;SDS011;2920;48.158;12.254;2023-02-28T02:17:38;6.65;;;3.75;;
5787;SDS011;2920;48.158;12.254;2023-02-28T02:20:16;5.05;;;3.00;;
5787;SDS011;2920;48.158;12.254;2023-02-28T02:23:03;8.45;;;3.60;;
5787;SDS011;2920;48.158;12.254;2023-02-28T02:25:39;6.40;;;3.33;;
5787;SDS011;2920;48.158;12.254;2023-02-28T02:28:32;6.28;;;3.70;;
5787;SDS011;2920;48.158;12.254;2023-02-28T02:43:53;7.28;;;3.72;;
5787;SDS011;2920;48.158;12.254;2023-02-28T02:46:23;8.35;;;3.85;;
5787;SDS011;2920;48.158;12.254;2023-02-28T02:49:00;7.40;;;3.88;;
5787;SDS011;2920;48.158;12.254;2023-02-28T02:51:30;8.18;;;3.92;;
5787;SDS011;2920;48.158;12.254;2023-02-28T02:54:02;8.00;;;4.00;;
5787;SDS011;2920;48.158;12.254;2023-02-28T02:56:31;7.38;;;4.78;;
5787;SDS011;2920;48.158;12.254;2023-02-28T02:58:59;7.80;;;4.30;;
5787;SDS011;2920;48.158;12.254;2023-02-28T03:01:27;11.02;;;4.15;;
5787;SDS011;2920;48.158;12.254;2023-02-28T03:03:57;10.65;;;4.35;;
5787;SDS011;2920;48.158;12.254;2023-02-28T03:06:24;7.53;;;4.13;;
5787;SDS011;2920;48.158;12.254;2023-02-28T03:08:50;10.73;;;5.15;;
5787;SDS011;2920;48.158;12.254;2023-02-28T03:11:15;10.40;;;5.22;;
5787;SDS011;2920;48.158;12.254;2023-02-28T03:24:24;11.10;;;5.03;;
5787;SDS011;2920;48.158;12.254;2023-02-28T03:26:58;10.32;;;5.18;;
5787;SDS011;2920;48.158;12.254;2023-02-28T03:29:29;16.67;;;5.90;;
5787;SDS011;2920;48.158;12.254;2023-02-28T03:32:04;11.07;;;5.38;;
5787;SDS011;2920;48.158;12.254;2023-02-28T03:34:39;14.98;;;5.38;;
5787;SDS011;2920;48.158;12.254;2023-02-28T03:37:08;10.57;;;4.88;;
5787;SDS011;2920;48.158;12.254;2023-02-28T03:39:37;9.98;;;5.57;;
5787;SDS011;2920;48.158;12.254;2023-02-28T03:42:15;10.38;;;5.80;;
5787;SDS011;2920;48.158;12.254;2023-02-28T03:44:48;13.45;;;5.60;;
5787;SDS011;2920;48.158;12.254;2023-02-28T03:47:24;9.35;;;5.38;;
5787;SDS011;2920;48.158;12.254;2023-02-28T03:49:53;13.10;;;5.95;;
5787;SDS011;2920;48.158;12.254;2023-02-28T03:52:22;10.38;;;4.88;;
5787;SDS011;2920;48.158;12.254;2023-02-28T03:54:54;11.43;;;4.95;;
5787;SDS011;2920;48.158;12.254;2023-02-28T03:57:24;11.77;;;5.80;;
5787;SDS011;2920;48.158;12.254;2023-02-28T04:00:06;12.18;;;5.57;;
5787;SDS011;2920;48.158;12.254;2023-02-28T04:02:37;12.18;;;5.53;;
5787;SDS011;2920;48.158;12.254;2023-02-28T04:05:02;11.95;;;6.13;;
5787;SDS011;2920;48.158;12.254;2023-02-28T04:07:31;10.48;;;5.22;;
5787;SDS011;2920;48.158;12.254;2023-02-28T04:09:56;14.25;;;5.97;;
5787;SDS011;2920;48.158;12.254;2023-02-28T04:12:22;11.23;;;5.07;;
5787;SDS011;2920;48.158;12.254;2023-02-28T04:14:48;13.50;;;6.57;;
5787;SDS011;2920;48.158;12.254;2023-02-28T04:17:14;14.63;;;6.45;;
5787;SDS011;2920;48.158;12.254;2023-02-28T04:19:39;12.05;;;5.18;;
5787;SDS011;2920;48.158;12.254;2023-02-28T04:22:04;14.50;;;7.15;;
5787;SDS011;2920;48.158;12.254;2023-02-28T04:24:30;11.52;;;6.35;;
5787;SDS011;2920;48.158;12.254;2023-02-28T04:26:55;11.90;;;6.63;;
5787;SDS011;2920;48.158;12.254;2023-02-28T04:29:26;14.02;;;6.72;;
5787;SDS011;2920;48.158;12.254;2023-02-28T04:31:51;12.60;;;6.70;;
5787;SDS011;2920;48.158;12.254;2023-02-28T04:34:22;12.88;;;6.13;;
5787;SDS011;2920;48.158;12.254;2023-02-28T04:36:48;11.60;;;6.05;;
5787;SDS011;2920;48.158;12.254;2023-02-28T04:39:15;10.68;;;6.13;;
5787;SDS011;2920;48.158;12.254;2023-02-28T04:41:43;13.63;;;6.28;;
5787;SDS011;2920;48.158;12.254;2023-02-28T04:44:08;12.73;;;5.90;;
5787;SDS011;2920;48.158;12.254;2023-02-28T04:46:33;12.57;;;6.53;;
5787;SDS011;2920;48.158;12.254;2023-02-28T04:48:59;13.27;;;6.55;;
5787;SDS011;2920;48.158;12.254;2023-02-28T04:51:24;13.25;;;6.32;;
5787;SDS011;2920;48.158;12.254;2023-02-28T04:53:49;12.57;;;6.57;;
5787;SDS011;2920;48.158;12.254;2023-02-28T04:56:16;13.60;;;6.55;;
5787;SDS011;2920;48.158;12.254;2023-02-28T04:58:42;16.27;;;7.70;;
5787;SDS011;2920;48.158;12.254;2023-02-28T05:03:58;16.95;;;6.90;;
5787;SDS011;2920;48.158;12.254;2023-02-28T05:06:25;11.52;;;6.18;;
5787;SDS011;2920;48.158;12.254;2023-02-28T05:08:51;15.77;;;7.18;;
5787;SDS011;2920;48.158;12.254;2023-02-28T05:13:47;14.25;;;7.25;;
5787;SDS011;2920;48.158;12.254;2023-02-28T05:16:12;15.23;;;6.57;;
5787;SDS011;2920;48.158;12.254;2023-02-28T05:18:38;11.32;;;6.05;;
5787;SDS011;2920;48.158;12.254;2023-02-28T05:21:03;13.98;;;7.55;;
5787;SDS011;2920;48.158;12.254;2023-02-28T05:23:29;13.95;;;7.25;;
5787;SDS011;2920;48.158;12.254;2023-02-28T05:25:54;13.15;;;6.53;;
5787;SDS011;2920;48.158;12.254;2023-02-28T05:28:20;15.98;;;7.15;;
5787;SDS011;2920;48.158;12.254;2023-02-28T05:30:45;14.55;;;7.20;;
5787;SDS011;2920;48.158;12.254;2023-02-28T05:33:11;15.18;;;7.07;;
5787;SDS011;2920;48.158;12.254;2023-02-28T05:35:40;17.30;;;7.18;;
5787;SDS011;2920;48.158;12.254;2023-02-28T05:38:06;13.43;;;7.00;;
5787;SDS011;2920;48.158;12.254;2023-02-28T05:40:32;18.00;;;8.13;;
5787;SDS011;2920;48.158;12.254;2023-02-28T05:42:57;20.58;;;8.02;;
5787;SDS011;2920;48.158;12.254;2023-02-28T05:45:23;17.00;;;6.63;;
5787;SDS011;2920;48.158;12.254;2023-02-28T05:47:48;14.93;;;7.20;;
5787;SDS011;2920;48.158;12.254;2023-02-28T05:50:13;17.48;;;7.93;;
5787;SDS011;2920;48.158;12.254;2023-02-28T05:52:39;19.70;;;8.18;;
5787;SDS011;2920;48.158;12.254;2023-02-28T05:55:04;13.80;;;7.20;;
5787;SDS011;2920;48.158;12.254;2023-02-28T05:57:30;17.40;;;8.48;;
5787;SDS011;2920;48.158;12.254;2023-02-28T05:59:55;15.63;;;8.05;;
5787;SDS011;2920;48.158;12.254;2023-02-28T06:02:21;11.80;;;7.72;;
5787;SDS011;2920;48.158;12.254;2023-02-28T06:04:46;19.27;;;7.13;;
5787;SDS011;2920;48.158;12.254;2023-02-28T06:07:11;13.98;;;7.32;;
5787;SDS011;2920;48.158;12.254;2023-02-28T06:09:37;18.38;;;7.13;;
5787;SDS011;2920;48.158;12.254;2023-02-28T06:12:03;18.13;;;8.55;;
5787;SDS011;2920;48.158;12.254;2023-02-28T06:14:30;13.43;;;7.18;;
5787;SDS011;2920;48.158;12.254;2023-02-28T06:16:57;16.77;;;8.00;;
5787;SDS011;2920;48.158;12.254;2023-02-28T06:19:22;19.75;;;8.63;;
5787;SDS011;2920;48.158;12.254;2023-02-28T06:21:50;14.10;;;7.65;;
5787;SDS011;2920;48.158;12.254;2023-02-28T06:24:17;17.50;;;8.38;;
5787;SDS011;2920;48.158;12.254;2023-02-28T06:26:43;14.85;;;7.28;;
5787;SDS011;2920;48.158;12.254;2023-02-28T06:29:08;17.40;;;8.57;;
5787;SDS011;2920;48.158;12.254;2023-02-28T06:31:34;19.35;;;9.32;;
5787;SDS011;2920;48.158;12.254;2023-02-28T06:33:59;15.40;;;7.72;;
5787;SDS011;2920;48.158;12.254;2023-02-28T06:36:24;17.33;;;8.25;;
5787;SDS011;2920;48.158;12.254;2023-02-28T06:38:50;18.45;;;8.45;;
5787;SDS011;2920;48.158;12.254;2023-02-28T06:41:19;17.70;;;8.40;;
5787;SDS011;2920;48.158;12.254;2023-02-28T06:43:46;16.92;;;8.75;;
5787;SDS011;2920;48.158;12.254;2023-02-28T06:46:11;16.75;;;8.38;;
5787;SDS011;2920;48.158;12.254;2023-02-28T06:48:38;14.20;;;6.90;;
5787;SDS011;2920;48.158;12.254;2023-02-28T06:51:08;14.07;;;7.32;;
5787;SDS011;2920;48.158;12.254;2023-02-28T06:53:35;16.90;;;8.82;;
5787;SDS011;2920;48.158;12.254;2023-02-28T06:56:04;17.40;;;8.27;;
5787;SDS011;2920;48.158;12.254;2023-02-28T06:58:31;19.35;;;8.68;;
5787;SDS011;2920;48.158;12.254;2023-02-28T07:00:56;16.83;;;8.43;;
5787;SDS011;2920;48.158;12.254;2023-02-28T07:03:22;12.95;;;7.60;;
5787;SDS011;2920;48.158;12.254;2023-02-28T07:05:48;17.60;;;8.20;;
5787;SDS011;2920;48.158;12.254;2023-02-28T07:08:13;16.00;;;7.97;;
5787;SDS011;2920;48.158;12.254;2023-02-28T07:10:38;12.95;;;7.53;;
5787;SDS011;2920;48.158;12.254;2023-02-28T07:13:04;16.70;;;7.85;;
5787;SDS011;2920;48.158;12.254;2023-02-28T07:15:30;18.50;;;8.57;;
5787;SDS011;2920;48.158;12.254;2023-02-28T07:17:56;17.23;;;7.97;;
5787;SDS011;2920;48.158;12.254;2023-02-28T07:20:21;18.08;;;8.80;;
5787;SDS011;2920;48.158;12.254;2023-02-28T07:22:48;19.58;;;9.32;;
5787;SDS011;2920;48.158;12.254;2023-02-28T07:25:20;17.80;;;8.43;;
5787;SDS011;2920;48.158;12.254;2023-02-28T07:27:48;18.50;;;8.60;;
5787;SDS011;2920;48.158;12.254;2023-02-28T07:30:13;17.65;;;7.88;;
5787;SDS011;2920;48.158;12.254;2023-02-28T07:32:39;18.08;;;8.60;;
5787;SDS011;2920;48.158;12.254;2023-02-28T07:35:04;17.52;;;8.18;;
5787;SDS011;2920;48.158;12.254;2023-02-28T07:37:30;19.15;;;8.55;;
5787;SDS011;2920;48.158;12.254;2023-02-28T07:39:56;14.85;;;8.15;;
5787;SDS011;2920;48.158;12.254;2023-02-28T07:42:22;14.85;;;7.80;;
5787;SDS011;2920;48.158;12.254;2023-02-28T07:44:47;16.15;;;8.60;;
5787;SDS011;2920;48.158;12.254;2023-02-28T07:47:12;17.23;;;8.10;;
5787;SDS011;2920;48.158;12.254;2023-02-28T07:49:38;17.63;;;8.38;;
5787;SDS011;2920;48.158;12.254;2023-02-28T07:52:04;17.00;;;9.10;;
5787;SDS011;2920;48.158;12.254;2023-02-28T07:54:30;16.23;;;8.70;;
5787;SDS011;2920;48.158;12.254;2023-02-28T07:56:56;16.08;;;8.40;;
5787;SDS011;2920;48.158;12.254;2023-02-28T07:59:21;20.45;;;10.30;;
5787;SDS011;2920;48.158;12.254;2023-02-28T08:01:46;19.83;;;9.45;;
5787;SDS011;2920;48.158;12.254;2023-02-28T08:04:14;21.88;;;10.13;;
5787;SDS011;2920;48.158;12.254;2023-02-28T08:06:39;21.10;;;9.43;;
5787;SDS011;2920;48.158;12.254;2023-02-28T08:09:05;18.35;;;8.52;;
5787;SDS011;2920;48.158;12.254;2023-02-28T08:11:31;16.90;;;8.60;;
5787;SDS011;2920;48.158;12.254;2023-02-28T08:13:56;18.33;;;9.23;;
5787;SDS011;2920;48.158;12.254;2023-02-28T08:16:21;14.48;;;7.57;;
5787;SDS011;2920;48.158;12.254;2023-02-28T08:18:50;19.15;;;9.30;;
5787;SDS011;2920;48.158;12.254;2023-02-28T08:21:16;18.25;;;9.00;;
5787;SDS011;2920;48.158;12.254;2023-02-28T08:23:41;18.30;;;9.50;;
5787;SDS011;2920;48.158;12.254;2023-02-28T08:26:06;17.13;;;8.57;;
5787;SDS011;2920;48.158;12.254;2023-02-28T08:28:32;18.02;;;8.30;;
5787;SDS011;2920;48.158;12.254;2023-02-28T08:30:57;21.33;;;9.35;;
5787;SDS011;2920;48.158;12.254;2023-02-28T08:33:23;16.92;;;8.85;;
5787;SDS011;2920;48.158;12.254;2023-02-28T08:35:51;18.23;;;8.68;;
5787;SDS011;2920;48.158;12.254;2023-02-28T08:38:18;15.00;;;7.60;;
5787;SDS011;2920;48.158;12.254;2023-02-28T08:40:43;15.90;;;8.95;;
5787;SDS011;2920;48.158;12.254;2023-02-28T08:43:08;18.25;;;8.98;;
5787;SDS011;2920;48.158;12.254;2023-02-28T08:45:34;16.52;;;8.45;;
5787;SDS011;2920;48.158;12.254;2023-02-28T08:47:59;17.70;;;8.38;;
5787;SDS011;2920;48.158;12.254;2023-02-28T08:50:24;17.05;;;8.43;;
5787;SDS011;2920;48.158;12.254;2023-02-28T08:52:50;20.92;;;9.18;;
5787;SDS011;2920;48.158;12.254;2023-02-28T08:55:15;17.80;;;10.13;;
5787;SDS011;2920;48.158;12.254;2023-02-28T08:57:40;17.15;;;8.75;;
5787;SDS011;2920;48.158;12.254;2023-02-28T09:00:06;18.98;;;10.25;;
5787;SDS011;2920;48.158;12.254;2023-02-28T09:02:32;16.63;;;8.73;;
5787;SDS011;2920;48.158;12.254;2023-02-28T09:04:58;16.70;;;9.10;;
5787;SDS011;2920;48.158;12.254;2023-02-28T09:07:23;15.75;;;9.45;;
5787;SDS011;2920;48.158;12.254;2023-02-28T09:09:49;18.92;;;10.05;;
5787;SDS011;2920;48.158;12.254;2023-02-28T09:12:22;17.83;;;9.07;;
5787;SDS011;2920;48.158;12.254;2023-02-28T09:14:48;15.90;;;8.93;;
5787;SDS011;2920;48.158;12.254;2023-02-28T09:17:14;20.88;;;8.82;;
5787;SDS011;2920;48.158;12.254;2023-02-28T09:19:39;17.85;;;9.32;;
5787;SDS011;2920;48.158;12.254;2023-02-28T09:22:05;14.88;;;8.70;;
5787;SDS011;2920;48.158;12.254;2023-02-28T09:24:30;15.88;;;8.10;;
5787;SDS011;2920;48.158;12.254;2023-02-28T09:26:56;15.90;;;8.73;;
5787;SDS011;2920;48.158;12.254;2023-02-28T09:29:22;20.33;;;9.20;;
5787;SDS011;2920;48.158;12.254;2023-02-28T09:31:47;18.17;;;8.93;;
5787;SDS011;2920;48.158;12.254;2023-02-28T09:34:12;16.55;;;8.52;;
5787;SDS011;2920;48.158;12.254;2023-02-28T09:36:38;21.50;;;9.35;;
5787;SDS011;2920;48.158;12.254;2023-02-28T09:39:03;15.05;;;9.07;;
5787;SDS011;2920;48.158;12.254;2023-02-28T09:41:29;16.67;;;8.57;;
5787;SDS011;2920;48.158;12.254;2023-02-28T09:44:02;15.13;;;8.32;;
5787;SDS011;2920;48.158;12.254;2023-02-28T09:46:42;13.20;;;8.07;;
5787;SDS011;2920;48.158;12.254;2023-02-28T09:49:17;13.25;;;7.63;;
5787;SDS011;2920;48.158;12.254;2023-02-28T09:54:28;15.48;;;8.10;;
5787;SDS011;2920;48.158;12.254;2023-02-28T10:02:32;15.77;;;7.47;;
5787;SDS011;2920;48.158;12.254;2023-02-28T10:05:20;18.48;;;8.98;;
5787;SDS011;2920;48.158;12.254;2023-02-28T10:10:57;17.42;;;8.77;;
5787;SDS011;2920;48.158;12.254;2023-02-28T10:16:01;14.52;;;7.97;;
5787;SDS011;2920;48.158;12.254;2023-02-28T10:18:30;13.68;;;7.80;;
5787;SDS011;2920;48.158;12.254;2023-02-28T10:21:09;21.02;;;8.88;;
5787;SDS011;2920;48.158;12.254;2023-02-28T10:23:43;12.00;;;7.90;;
5787;SDS011;2920;48.158;12.254;2023-02-28T10:26:12;17.17;;;9.77;;
5787;SDS011;2920;48.158;12.254;2023-02-28T10:28:38;13.75;;;8.70;;
5787;SDS011;2920;48.158;12.254;2023-02-28T10:31:03;18.33;;;8.77;;
5787;SDS011;2920;48.158;12.254;2023-02-28T10:33:33;14.48;;;8.60;;
5787;SDS011;2920;48.158;12.254;2023-02-28T10:36:00;18.23;;;9.18;;
5787;SDS011;2920;48.158;12.254;2023-02-28T10:38:27;13.57;;;7.95;;
5787;SDS011;2920;48.158;12.254;2023-02-28T10:41:03;18.63;;;9.57;;
5787;SDS011;2920;48.158;12.254;2023-02-28T10:43:33;14.63;;;8.70;;
5787;SDS011;2920;48.158;12.254;2023-02-28T10:48:40;16.47;;;9.77;;
5787;SDS011;2920;48.158;12.254;2023-02-28T10:51:13;16.42;;;8.75;;
5787;SDS011;2920;48.158;12.254;2023-02-28T11:03:50;12.52;;;7.07;;
5787;SDS011;2920;48.158;12.254;2023-02-28T11:06:20;12.48;;;7.50;;
5787;SDS011;2920;48.158;12.254;2023-02-28T11:09:01;13.63;;;7.50;;
5787;SDS011;2920;48.158;12.254;2023-02-28T11:11:29;13.25;;;8.07;;
5787;SDS011;2920;48.158;12.254;2023-02-28T11:13:57;11.48;;;7.22;;
5787;SDS011;2920;48.158;12.254;2023-02-28T11:16:35;16.67;;;7.97;;
5787;SDS011;2920;48.158;12.254;2023-02-28T11:19:02;12.93;;;7.45;;
5787;SDS011;2920;48.158;12.254;2023-02-28T11:21:36;16.05;;;7.55;;
5787;SDS011;2920;48.158;12.254;2023-02-28T11:24:24;11.80;;;6.78;;
5787;SDS011;2920;48.158;12.254;2023-02-28T11:26:53;13.00;;;7.57;;
5787;SDS011;2920;48.158;12.254;2023-02-28T11:29:20;12.10;;;7.00;;
5787;SDS011;2920;48.158;12.254;2023-02-28T11:34:27;12.30;;;7.90;;
5787;SDS011;2920;48.158;12.254;2023-02-28T11:36:53;10.45;;;6.55;;
5787;SDS011;2920;48.158;12.254;2023-02-28T11:39:19;15.77;;;7.28;;
5787;SDS011;2920;48.158;12.254;2023-02-28T11:53:17;13.20;;;7.03;;
5787;SDS011;2920;48.158;12.254;2023-02-28T11:55:55;11.88;;;6.57;;
5787;SDS011;2920;48.158;12.254;2023-02-28T12:01:09;12.27;;;6.82;;
5787;SDS011;2920;48.158;12.254;2023-02-28T12:09:03;10.75;;;6.38;;
5787;SDS011;2920;48.158;12.254;2023-02-28T12:11:47;12.25;;;7.38;;
5787;SDS011;2920;48.158;12.254;2023-02-28T12:19:41;12.70;;;7.35;;
5787;SDS011;2920;48.158;12.254;2023-02-28T12:27:26;13.73;;;7.20;;
5787;SDS011;2920;48.158;12.254;2023-02-28T12:29:56;9.38;;;6.82;;
5787;SDS011;2920;48.158;12.254;2023-02-28T12:35:00;11.32;;;6.97;;
5787;SDS011;2920;48.158;12.254;2023-02-28T12:37:29;13.43;;;7.38;;
5787;SDS011;2920;48.158;12.254;2023-02-28T12:40:00;13.35;;;7.18;;
5787;SDS011;2920;48.158;12.254;2023-02-28T12:42:40;13.10;;;7.03;;
5787;SDS011;2920;48.158;12.254;2023-02-28T12:47:36;12.55;;;6.75;;
5787;SDS011;2920;48.158;12.254;2023-02-28T12:50:04;9.00;;;6.50;;
5787;SDS011;2920;48.158;12.254;2023-02-28T12:55:25;11.18;;;6.95;;
5787;SDS011;2920;48.158;12.254;2023-02-28T13:08:59;12.32;;;7.15;;
5787;SDS011;2920;48.158;12.254;2023-02-28T13:11:46;9.93;;;6.75;;
5787;SDS011;2920;48.158;12.254;2023-02-28T13:14:18;13.50;;;7.75;;
5787;SDS011;2920;48.158;12.254;2023-02-28T13:17:10;13.25;;;7.40;;
5787;SDS011;2920;48.158;12.254;2023-02-28T13:19:44;10.70;;;6.80;;
5787;SDS011;2920;48.158;12.254;2023-02-28T13:24:50;12.10;;;7.13;;
5787;SDS011;2920;48.158;12.254;2023-02-28T13:33:22;14.18;;;7.28;;
5787;SDS011;2920;48.158;12.254;2023-02-28T13:36:08;11.30;;;6.85;;
5787;SDS011;2920;48.158;12.254;2023-02-28T13:51:50;9.82;;;6.97;;
5787;SDS011;2920;48.158;12.254;2023-02-28T14:00:08;11.02;;;6.95;;
5787;SDS011;2920;48.158;12.254;2023-02-28T14:09:02;13.23;;;7.27;;
5787;SDS011;2920;48.158;12.254;2023-02-28T14:11:33;9.23;;;5.72;;
5787;SDS011;2920;48.158;12.254;2023-02-28T14:14:00;13.35;;;6.38;;
5787;SDS011;2920;48.158;12.254;2023-02-28T14:16:26;10.88;;;6.75;;
5787;SDS011;2920;48.158;12.254;2023-02-28T14:21:31;10.32;;;6.93;;
5787;SDS011;2920;48.158;12.254;2023-02-28T14:34:48;12.65;;;7.93;;
5787;SDS011;2920;48.158;12.254;2023-02-28T14:37:29;12.02;;;6.85;;
5787;SDS011;2920;48.158;12.254;2023-02-28T14:39:55;11.43;;;6.50;;
5787;SDS011;2920;48.158;12.254;2023-02-28T14:44:55;10.65;;;5.60;;
5787;SDS011;2920;48.158;12.254;2023-02-28T14:47:21;10.43;;;6.97;;
5787;SDS011;2920;48.158;12.254;2023-02-28T14:49:48;10.98;;;6.45;;
5787;SDS011;2920;48.158;12.254;2023-02-28T14:52:19;10.80;;;6.45;;
5787;SDS011;2920;48.158;12.254;2023-02-28T14:54:45;10.77;;;6.55;;
5787;SDS011;2920;48.158;12.254;2023-02-28T14:57:21;13.20;;;6.97;;
5787;SDS011;2920;48.158;12.254;2023-02-28T14:59:56;13.00;;;6.85;;
5787;SDS011;2920;48.158;12.254;2023-02-28T15:02:23;8.05;;;5.97;;
5787;SDS011;2920;48.158;12.254;2023-02-28T15:04:58;13.73;;;7.03;;
5787;SDS011;2920;48.158;12.254;2023-02-28T15:07:25;12.57;;;6.60;;
5787;SDS011;2920;48.158;12.254;2023-02-28T15:12:56;11.43;;;6.55;;
5787;SDS011;2920;48.158;12.254;2023-02-28T15:15:27;11.45;;;7.10;;
5787;SDS011;2920;48.158;12.254;2023-02-28T15:18:06;14.23;;;6.88;;
5787;SDS011;2920;48.158;12.254;2023-02-28T15:20:32;11.13;;;6.63;;
5787;SDS011;2920;48.158;12.254;2023-02-28T15:22:58;13.90;;;7.35;;
5787;SDS011;2920;48.158;12.254;2023-02-28T15:25:24;10.20;;;6.55;;
5787;SDS011;2920;48.158;12.254;2023-02-28T15:27:51;14.82;;;7.10;;
5787;SDS011;2920;48.158;12.254;2023-02-28T15:30:19;10.77;;;6.20;;
5787;SDS011;2920;48.158;12.254;2023-02-28T15:33:04;11.45;;;6.05;;
5787;SDS011;2920;48.158;12.254;2023-02-28T15:35:33;10.63;;;7.28;;
5787;SDS011;2920;48.158;12.254;2023-02-28T15:38:03;13.10;;;7.07;;
5787;SDS011;2920;48.158;12.254;2023-02-28T15:40:41;15.25;;;6.85;;
5787;SDS011;2920;48.158;12.254;2023-02-28T15:43:17;10.68;;;6.47;;
5787;SDS011;2920;48.158;12.254;2023-02-28T15:45:44;16.00;;;7.53;;
5787;SDS011;2920;48.158;12.254;2023-02-28T15:48:33;11.95;;;7.20;;
5787;SDS011;2920;48.158;12.254;2023-02-28T15:51:07;15.30;;;7.50;;
5787;SDS011;2920;48.158;12.254;2023-02-28T15:53:43;12.43;;;6.40;;
5787;SDS011;2920;48.158;12.254;2023-02-28T15:56:23;10.65;;;6.10;;
5787;SDS011;2920;48.158;12.254;2023-02-28T15:58:52;10.57;;;6.07;;
5787;SDS011;2920;48.158;12.254;2023-02-28T16:01:25;9.63;;;6.18;;
5787;SDS011;2920;48.158;12.254;2023-02-28T16:03:54;13.88;;;7.38;;
5787;SDS011;2920;48.158;12.254;2023-02-28T16:08:47;12.85;;;6.68;;
5787;SDS011;2920;48.158;12.254;2023-02-28T16:11:13;13.75;;;6.28;;
5787;SDS011;2920;48.158;12.254;2023-02-28T16:13:39;9.73;;;5.80;;
5787;SDS011;2920;48.158;12.254;2023-02-28T16:16:04;12.85;;;7.07;;
5787;SDS011;2920;48.158;12.254;2023-02-28T16:18:30;9.65;;;6.13;;
5787;SDS011;2920;48.158;12.254;2023-02-28T16:20:55;13.63;;;7.43;;
5787;SDS011;2920;48.158;12.254;2023-02-28T16:23:21;12.20;;;7.40;;
5787;SDS011;2920;48.158;12.254;2023-02-28T16:25:46;13.55;;;7.90;;
5787;SDS011;2920;48.158;12.254;2023-02-28T16:30:52;14.27;;;7.10;;
5787;SDS011;2920;48.158;12.254;2023-02-28T16:33:17;11.63;;;6.60;;
5787;SDS011;2920;48.158;12.254;2023-02-28T16:35:42;13.32;;;7.13;;
5787;SDS011;2920;48.158;12.254;2023-02-28T16:38:08;14.23;;;8.18;;
5787;SDS011;2920;48.158;12.254;2023-02-28T16:40:34;12.18;;;6.43;;
5787;SDS011;2920;48.158;12.254;2023-02-28T16:43:00;14.50;;;7.55;;
5787;SDS011;2920;48.158;12.254;2023-02-28T16:45:27;14.00;;;7.68;;
5787;SDS011;2920;48.158;12.254;2023-02-28T16:47:53;11.38;;;6.90;;
5787;SDS011;2920;48.158;12.254;2023-02-28T16:50:26;15.98;;;7.57;;
5787;SDS011;2920;48.158;12.254;2023-02-28T16:52:53;10.95;;;6.30;;
5787;SDS011;2920;48.158;12.254;2023-02-28T16:55:19;11.52;;;7.40;;
5787;SDS011;2920;48.158;12.254;2023-02-28T16:57:55;13.32;;;7.35;;
5787;SDS011;2920;48.158;12.254;2023-02-28T17:00:22;11.93;;;6.28;;
5787;SDS011;2920;48.158;12.254;2023-02-28T17:02:48;12.15;;;6.40;;
5787;SDS011;2920;48.158;12.254;2023-02-28T17:05:14;16.55;;;7.13;;
5787;SDS011;2920;48.158;12.254;2023-02-28T17:07:40;12.52;;;7.43;;
5787;SDS011;2920;48.158;12.254;2023-02-28T17:10:28;10.57;;;6.63;;
5787;SDS011;2920;48.158;12.254;2023-02-28T17:12:53;17.67;;;9.00;;
5787;SDS011;2920;48.158;12.254;2023-02-28T17:15:19;12.82;;;7.88;;
5787;SDS011;2920;48.158;12.254;2023-02-28T17:17:45;13.63;;;7.78;;
5787;SDS011;2920;48.158;12.254;2023-02-28T17:20:21;11.13;;;7.00;;
5787;SDS011;2920;48.158;12.254;2023-02-28T17:25:16;15.10;;;8.40;;
5787;SDS011;2920;48.158;12.254;2023-02-28T17:27:42;16.90;;;7.43;;
5787;SDS011;2920;48.158;12.254;2023-02-28T17:30:15;14.35;;;7.57;;
5787;SDS011;2920;48.158;12.254;2023-02-28T17:32:42;13.57;;;7.22;;
5787;SDS011;2920;48.158;12.254;2023-02-28T17:35:08;11.43;;;6.82;;
5787;SDS011;2920;48.158;12.254;2023-02-28T17:37:33;12.23;;;7.43;;
5787;SDS011;2920;48.158;12.254;2023-02-28T17:39:59;12.68;;;6.53;;
5787;SDS011;2920;48.158;12.254;2023-02-28T17:42:24;16.40;;;8.50;;
5787;SDS011;2920;48.158;12.254;2023-02-28T17:44:50;13.82;;;7.90;;
5787;SDS011;2920;48.158;12.254;2023-02-28T17:47:15;14.35;;;8.15;;
5787;SDS011;2920;48.158;12.254;2023-02-28T17:49:40;18.63;;;8.75;;
5787;SDS011;2920;48.158;12.254;2023-02-28T17:52:06;23.00;;;10.23;;